sensor_id;sensor_type;location;lat;lon;timestamp;pressure;altitude;pressure_sealevel;temperature;humidity
44765;BME280;30484;52.382;5.260;2022-08-19T00:00:29;101550.84;;;21.50;100.00
44765;BME280;30484;52.382;5.260;2022-08-19T00:02:58;101556.50;;;21.26;100.00
44765;BME280;30484;52.382;5.260;2022-08-19T00:05:27;101546.09;;;21.63;100.00
44765;BME280;30484;52.382;5.260;2022-08-19T00:07:58;101538.06;;;21.62;100.00
44765;BME280;30484;52.382;5.260;2022-08-19T00:10:30;101540.28;;;21.68;100.00
44765;BME280;30484;52.382;5.260;2022-08-19T00:13:02;101551.97;;;21.47;100.00
44765;BME280;30484;52.382;5.260;2022-08-19T00:15:34;101556.19;;;21.51;100.00
44765;BME280;30484;52.382;5.260;2022-08-19T00:18:05;101541.34;;;21.55;100.00
44765;BME280;30484;52.382;5.260;2022-08-19T00:20:37;101551.44;;;21.65;100.00
44765;BME280;30484;52.382;5.260;2022-08-19T00:23:08;101550.75;;;21.51;100.00
44765;BME280;30484;52.382;5.260;2022-08-19T00:25:37;101555.66;;;21.58;100.00
44765;BME280;30484;52.382;5.260;2022-08-19T00:28:10;101553.69;;;21.48;100.00
44765;BME280;30484;52.382;5.260;2022-08-19T00:30:38;101551.81;;;21.49;100.00
44765;BME280;30484;52.382;5.260;2022-08-19T00:33:09;101554.94;;;21.44;100.00
44765;BME280;30484;52.382;5.260;2022-08-19T00:35:38;101544.88;;;21.35;100.00
44765;BME280;30484;52.382;5.260;2022-08-19T00:38:07;101546.72;;;21.34;100.00
44765;BME280;30484;52.382;5.260;2022-08-19T00:40:39;101556.91;;;21.21;100.00
44765;BME280;30484;52.382;5.260;2022-08-19T00:43:12;101556.94;;;21.10;100.00
44765;BME280;30484;52.382;5.260;2022-08-19T00:45:44;101556.28;;;21.17;100.00
44765;BME280;30484;52.382;5.260;2022-08-19T00:48:17;101548.13;;;21.17;100.00
44765;BME280;30484;52.382;5.260;2022-08-19T00:50:49;101548.00;;;21.19;100.00
44765;BME280;30484;52.382;5.260;2022-08-19T00:53:28;101542.28;;;21.01;100.00
44765;BME280;30484;52.382;5.260;2022-08-19T00:56:01;101539.19;;;21.06;100.00
44765;BME280;30484;52.382;5.260;2022-08-19T00:58:38;101539.72;;;21.20;100.00
44765;BME280;30484;52.382;5.260;2022-08-19T01:01:08;101525.91;;;21.24;100.00
44765;BME280;30484;52.382;5.260;2022-08-19T01:03:42;101543.75;;;21.05;100.00
44765;BME280;30484;52.382;5.260;2022-08-19T01:06:25;101541.47;;;21.21;100.00
44765;BME280;30484;52.382;5.260;2022-08-19T01:08:58;101546.66;;;21.13;100.00
44765;BME280;30484;52.382;5.260;2022-08-19T01:11:30;101555.34;;;21.07;100.00
44765;BME280;30484;52.382;5.260;2022-08-19T01:14:06;101555.63;;;20.93;100.00
44765;BME280;30484;52.382;5.260;2022-08-19T01:16:40;101565.81;;;20.68;100.00
44765;BME280;30484;52.382;5.260;2022-08-19T01:19:18;101558.94;;;20.96;100.00
44765;BME280;30484;52.382;5.260;2022-08-19T01:22:00;101557.69;;;21.00;100.00
44765;BME280;30484;52.382;5.260;2022-08-19T01:24:44;101564.03;;;20.90;100.00
44765;BME280;30484;52.382;5.260;2022-08-19T01:27:18;101550.44;;;21.01;100.00
44765;BME280;30484;52.382;5.260;2022-08-19T01:29:47;101545.69;;;21.14;100.00
44765;BME280;30484;52.382;5.260;2022-08-19T01:32:17;101550.59;;;21.20;100.00
44765;BME280;30484;52.382;5.260;2022-08-19T01:35:00;101539.50;;;21.24;100.00
44765;BME280;30484;52.382;5.260;2022-08-19T01:37:47;101552.63;;;21.07;100.00
44765;BME280;30484;52.382;5.260;2022-08-19T01:40:20;101553.84;;;21.14;100.00
44765;BME280;30484;52.382;5.260;2022-08-19T01:42:55;101547.41;;;21.15;100.00
44765;BME280;30484;52.382;5.260;2022-08-19T01:45:25;101537.00;;;21.20;100.00
44765;BME280;30484;52.382;5.260;2022-08-19T01:47:58;101539.41;;;21.14;100.00
44765;BME280;30484;52.382;5.260;2022-08-19T01:50:31;101551.50;;;21.10;100.00
44765;BME280;30484;52.382;5.260;2022-08-19T01:53:09;101547.31;;;21.06;100.00
44765;BME280;30484;52.382;5.260;2022-08-19T01:55:42;101554.03;;;20.90;100.00
44765;BME280;30484;52.382;5.260;2022-08-19T01:58:20;101557.69;;;21.00;100.00
44765;BME280;30484;52.382;5.260;2022-08-19T02:00:54;101561.31;;;20.90;100.00
44765;BME280;30484;52.382;5.260;2022-08-19T02:03:24;101555.88;;;21.01;100.00
44765;BME280;30484;52.382;5.260;2022-08-19T02:05:59;101553.88;;;21.03;100.00
44765;BME280;30484;52.382;5.260;2022-08-19T02:08:37;101547.97;;;20.98;100.00
44765;BME280;30484;52.382;5.260;2022-08-19T02:11:08;101551.56;;;20.87;100.00
44765;BME280;30484;52.382;5.260;2022-08-19T02:13:39;101561.06;;;20.93;100.00
44765;BME280;30484;52.382;5.260;2022-08-19T02:16:08;101556.91;;;20.77;100.00
44765;BME280;30484;52.382;5.260;2022-08-19T02:18:44;101562.34;;;20.77;100.00
44765;BME280;30484;52.382;5.260;2022-08-19T02:21:15;101566.66;;;20.80;100.00
44765;BME280;30484;52.382;5.260;2022-08-19T02:23:45;101564.00;;;21.01;100.00
44765;BME280;30484;52.382;5.260;2022-08-19T02:26:16;101563.56;;;20.84;100.00
44765;BME280;30484;52.382;5.260;2022-08-19T02:28:46;101548.22;;;20.95;100.00
44765;BME280;30484;52.382;5.260;2022-08-19T02:31:19;101557.41;;;20.82;100.00
44765;BME280;30484;52.382;5.260;2022-08-19T02:33:52;101566.50;;;20.93;100.00
44765;BME280;30484;52.382;5.260;2022-08-19T02:36:24;101573.44;;;20.74;100.00
44765;BME280;30484;52.382;5.260;2022-08-19T02:38:57;101566.00;;;20.88;100.00
44765;BME280;30484;52.382;5.260;2022-08-19T02:41:31;101555.16;;;20.88;100.00
44765;BME280;30484;52.382;5.260;2022-08-19T02:44:04;101563.16;;;20.89;100.00
44765;BME280;30484;52.382;5.260;2022-08-19T02:46:55;101569.50;;;20.78;100.00
44765;BME280;30484;52.382;5.260;2022-08-19T02:49:23;101563.31;;;20.76;100.00
44765;BME280;30484;52.382;5.260;2022-08-19T02:51:53;101567.50;;;20.80;100.00
44765;BME280;30484;52.382;5.260;2022-08-19T02:54:23;101558.88;;;20.86;100.00
44765;BME280;30484;52.382;5.260;2022-08-19T02:56:54;101553.56;;;20.85;100.00
44765;BME280;30484;52.382;5.260;2022-08-19T02:59:23;101548.47;;;20.92;100.00
44765;BME280;30484;52.382;5.260;2022-08-19T03:01:54;101545.66;;;20.82;100.00
44765;BME280;30484;52.382;5.260;2022-08-19T03:04:26;101534.16;;;20.90;100.00
44765;BME280;30484;52.382;5.260;2022-08-19T03:06:55;101528.47;;;20.93;100.00
44765;BME280;30484;52.382;5.260;2022-08-19T03:09:39;101535.66;;;20.82;100.00
44765;BME280;30484;52.382;5.260;2022-08-19T03:12:13;101540.34;;;20.80;100.00
44765;BME280;30484;52.382;5.260;2022-08-19T03:14:43;101536.41;;;20.84;100.00
44765;BME280;30484;52.382;5.260;2022-08-19T03:17:15;101540.34;;;20.80;100.00
44765;BME280;30484;52.382;5.260;2022-08-19T03:19:44;101560.84;;;20.39;100.00
44765;BME280;30484;52.382;5.260;2022-08-19T03:22:14;101557.28;;;20.61;100.00
44765;BME280;30484;52.382;5.260;2022-08-19T03:24:43;101560.13;;;20.71;100.00
44765;BME280;30484;52.382;5.260;2022-08-19T03:27:13;101552.34;;;20.55;100.00
44765;BME280;30484;52.382;5.260;2022-08-19T03:29:42;101555.81;;;20.46;100.00
44765;BME280;30484;52.382;5.260;2022-08-19T03:32:12;101554.81;;;20.24;100.00
44765;BME280;30484;52.382;5.260;2022-08-19T03:35:01;101541.50;;;20.21;100.00
44765;BME280;30484;52.382;5.260;2022-08-19T03:37:30;101557.16;;;20.06;100.00
44765;BME280;30484;52.382;5.260;2022-08-19T03:40:02;101547.41;;;20.15;100.00
44765;BME280;30484;52.382;5.260;2022-08-19T03:42:32;101559.59;;;20.09;100.00
44765;BME280;30484;52.382;5.260;2022-08-19T03:45:16;101568.00;;;20.06;100.00
44765;BME280;30484;52.382;5.260;2022-08-19T03:47:45;101567.63;;;19.99;100.00
44765;BME280;30484;52.382;5.260;2022-08-19T03:50:15;101553.44;;;20.07;100.00
44765;BME280;30484;52.382;5.260;2022-08-19T03:52:49;101554.69;;;20.14;100.00
44765;BME280;30484;52.382;5.260;2022-08-19T03:55:23;101553.84;;;20.25;100.00
44765;BME280;30484;52.382;5.260;2022-08-19T03:57:57;101562.09;;;20.24;100.00
44765;BME280;30484;52.382;5.260;2022-08-19T04:00:28;101566.28;;;19.94;100.00
44765;BME280;30484;52.382;5.260;2022-08-19T04:02:59;101574.03;;;19.98;100.00
44765;BME280;30484;52.382;5.260;2022-08-19T04:05:29;101573.28;;;19.96;100.00
44765;BME280;30484;52.382;5.260;2022-08-19T04:07:59;101578.34;;;19.90;100.00
44765;BME280;30484;52.382;5.260;2022-08-19T04:10:30;101577.03;;;20.18;100.00
44765;BME280;30484;52.382;5.260;2022-08-19T04:13:04;101582.78;;;20.02;100.00
44765;BME280;30484;52.382;5.260;2022-08-19T04:15:42;101582.78;;;20.13;100.00
44765;BME280;30484;52.382;5.260;2022-08-19T04:18:12;101581.44;;;20.19;100.00
44765;BME280;30484;52.382;5.260;2022-08-19T04:20:45;101568.63;;;20.21;100.00
44765;BME280;30484;52.382;5.260;2022-08-19T04:23:15;101562.72;;;20.27;100.00
44765;BME280;30484;52.382;5.260;2022-08-19T04:25:49;101562.34;;;20.32;100.00
44765;BME280;30484;52.382;5.260;2022-08-19T04:28:26;101548.75;;;20.21;100.00
44765;BME280;30484;52.382;5.260;2022-08-19T04:30:56;101546.06;;;20.32;100.00
44765;BME280;30484;52.382;5.260;2022-08-19T04:33:27;101552.50;;;20.31;100.00
44765;BME280;30484;52.382;5.260;2022-08-19T04:35:58;101541.72;;;20.29;100.00
44765;BME280;30484;52.382;5.260;2022-08-19T04:38:32;101545.31;;;20.18;100.00
44765;BME280;30484;52.382;5.260;2022-08-19T04:41:04;101548.63;;;20.33;100.00
44765;BME280;30484;52.382;5.260;2022-08-19T04:43:56;101545.31;;;20.41;100.00
44765;BME280;30484;52.382;5.260;2022-08-19T04:46:30;101546.31;;;20.40;100.00
44765;BME280;30484;52.382;5.260;2022-08-19T04:49:17;101547.06;;;20.31;100.00
44765;BME280;30484;52.382;5.260;2022-08-19T04:51:53;101549.25;;;20.14;100.00
44765;BME280;30484;52.382;5.260;2022-08-19T04:54:27;101558.00;;;20.29;100.00
44765;BME280;30484;52.382;5.260;2022-08-19T04:57:09;101570.97;;;20.26;100.00
44765;BME280;30484;52.382;5.260;2022-08-19T04:59:41;101570.59;;;20.30;100.00
44765;BME280;30484;52.382;5.260;2022-08-19T05:02:13;101575.66;;;20.35;100.00
44765;BME280;30484;52.382;5.260;2022-08-19T05:04:41;101575.66;;;20.35;100.00
44765;BME280;30484;52.382;5.260;2022-08-19T05:07:11;101575.19;;;20.30;100.00
44765;BME280;30484;52.382;5.260;2022-08-19T05:09:41;101581.97;;;20.35;100.00
44765;BME280;30484;52.382;5.260;2022-08-19T05:12:25;101581.19;;;20.33;100.00
44765;BME280;30484;52.382;5.260;2022-08-19T05:14:59;101589.22;;;20.46;100.00
44765;BME280;30484;52.382;5.260;2022-08-19T05:17:29;101598.59;;;20.53;100.00
44765;BME280;30484;52.382;5.260;2022-08-19T05:20:07;101605.28;;;20.61;100.00
44765;BME280;30484;52.382;5.260;2022-08-19T05:22:54;101605.66;;;20.67;100.00
44765;BME280;30484;52.382;5.260;2022-08-19T05:25:27;101598.75;;;20.75;100.00
44765;BME280;30484;52.382;5.260;2022-08-19T05:27:56;101598.88;;;20.73;100.00
44765;BME280;30484;52.382;5.260;2022-08-19T05:30:27;101595.41;;;20.82;100.00
44765;BME280;30484;52.382;5.260;2022-08-19T05:33:16;101585.03;;;20.88;100.00
44765;BME280;30484;52.382;5.260;2022-08-19T05:35:45;101579.84;;;20.84;100.00
44765;BME280;30484;52.382;5.260;2022-08-19T05:38:18;101595.63;;;20.91;100.00
44765;BME280;30484;52.382;5.260;2022-08-19T05:40:47;101578.31;;;21.03;100.00
44765;BME280;30484;52.382;5.260;2022-08-19T05:43:16;101580.28;;;21.12;100.00
44765;BME280;30484;52.382;5.260;2022-08-19T05:45:48;101585.63;;;21.02;100.00
44765;BME280;30484;52.382;5.260;2022-08-19T05:48:17;101592.63;;;21.16;100.00
44765;BME280;30484;52.382;5.260;2022-08-19T05:50:49;101587.44;;;21.02;100.00
44765;BME280;30484;52.382;5.260;2022-08-19T05:53:18;101593.53;;;21.38;100.00
44765;BME280;30484;52.382;5.260;2022-08-19T05:55:49;101587.41;;;21.57;100.00
44765;BME280;30484;52.382;5.260;2022-08-19T05:58:18;101589.69;;;21.73;100.00
44765;BME280;30484;52.382;5.260;2022-08-19T06:00:56;101582.28;;;21.75;100.00
44765;BME280;30484;52.382;5.260;2022-08-19T06:03:24;101578.47;;;21.87;100.00
44765;BME280;30484;52.382;5.260;2022-08-19T06:05:58;101591.00;;;21.79;100.00
44765;BME280;30484;52.382;5.260;2022-08-19T06:08:28;101583.72;;;21.79;100.00
44765;BME280;30484;52.382;5.260;2022-08-19T06:11:15;101583.38;;;21.72;100.00
44765;BME280;30484;52.382;5.260;2022-08-19T06:13:49;101583.59;;;22.02;100.00
44765;BME280;30484;52.382;5.260;2022-08-19T06:16:29;101581.66;;;22.35;100.00
44765;BME280;30484;52.382;5.260;2022-08-19T06:19:09;101585.25;;;22.45;100.00
44765;BME280;30484;52.382;5.260;2022-08-19T06:21:41;101593.84;;;22.19;100.00
44765;BME280;30484;52.382;5.260;2022-08-19T06:24:15;101581.69;;;22.54;100.00
44765;BME280;30484;52.382;5.260;2022-08-19T06:26:48;101573.09;;;22.49;100.00
44765;BME280;30484;52.382;5.260;2022-08-19T06:29:28;101567.63;;;23.00;100.00
44765;BME280;30484;52.382;5.260;2022-08-19T06:32:01;101561.69;;;22.65;100.00
44765;BME280;30484;52.382;5.260;2022-08-19T06:34:33;101557.88;;;23.07;100.00
44765;BME280;30484;52.382;5.260;2022-08-19T06:37:03;101562.03;;;22.82;100.00
44765;BME280;30484;52.382;5.260;2022-08-19T06:39:35;101567.34;;;23.03;100.00
44765;BME280;30484;52.382;5.260;2022-08-19T06:42:08;101562.44;;;22.87;100.00
44765;BME280;30484;52.382;5.260;2022-08-19T06:44:42;101568.59;;;22.79;100.00
44765;BME280;30484;52.382;5.260;2022-08-19T06:47:20;101564.38;;;23.16;100.00
44765;BME280;30484;52.382;5.260;2022-08-19T06:49:55;101568.41;;;23.41;100.00
44765;BME280;30484;52.382;5.260;2022-08-19T06:52:35;101557.78;;;23.28;100.00
44765;BME280;30484;52.382;5.260;2022-08-19T06:55:07;101566.69;;;23.40;100.00
44765;BME280;30484;52.382;5.260;2022-08-19T06:57:36;101570.69;;;23.55;100.00
44765;BME280;30484;52.382;5.260;2022-08-19T07:00:09;101572.09;;;23.01;100.00
44765;BME280;30484;52.382;5.260;2022-08-19T07:02:43;101569.56;;;23.68;100.00
44765;BME280;30484;52.382;5.260;2022-08-19T07:05:23;101568.97;;;23.64;100.00
44765;BME280;30484;52.382;5.260;2022-08-19T07:07:52;101571.69;;;23.74;100.00
44765;BME280;30484;52.382;5.260;2022-08-19T07:10:25;101570.84;;;23.73;100.00
44765;BME280;30484;52.382;5.260;2022-08-19T07:12:54;101565.78;;;23.88;100.00
44765;BME280;30484;52.382;5.260;2022-08-19T07:15:23;101584.47;;;23.73;100.00
44765;BME280;30484;52.382;5.260;2022-08-19T07:17:54;101571.97;;;23.81;100.00
44765;BME280;30484;52.382;5.260;2022-08-19T07:20:24;101580.59;;;23.76;100.00
44765;BME280;30484;52.382;5.260;2022-08-19T07:22:55;101575.84;;;23.78;100.00
44765;BME280;30484;52.382;5.260;2022-08-19T07:25:25;101576.00;;;23.96;100.00
44765;BME280;30484;52.382;5.260;2022-08-19T07:28:01;101570.06;;;24.10;100.00
44765;BME280;30484;52.382;5.260;2022-08-19T07:30:31;101571.81;;;23.82;100.00
44765;BME280;30484;52.382;5.260;2022-08-19T07:33:02;101573.56;;;23.83;100.00
44765;BME280;30484;52.382;5.260;2022-08-19T07:35:31;101576.00;;;24.34;100.00
44765;BME280;30484;52.382;5.260;2022-08-19T07:38:02;101568.75;;;24.52;100.00
44765;BME280;30484;52.382;5.260;2022-08-19T07:40:32;101563.06;;;24.73;100.00
44765;BME280;30484;52.382;5.260;2022-08-19T07:43:01;101569.09;;;24.39;100.00
44765;BME280;30484;52.382;5.260;2022-08-19T07:45:31;101570.78;;;24.50;100.00
44765;BME280;30484;52.382;5.260;2022-08-19T07:48:03;101570.25;;;24.92;100.00
44765;BME280;30484;52.382;5.260;2022-08-19T07:50:32;101568.78;;;24.80;100.00
44765;BME280;30484;52.382;5.260;2022-08-19T07:53:06;101565.03;;;24.43;100.00
44765;BME280;30484;52.382;5.260;2022-08-19T07:55:36;101555.28;;;24.41;100.00
44765;BME280;30484;52.382;5.260;2022-08-19T07:58:12;101570.91;;;24.86;100.00
44765;BME280;30484;52.382;5.260;2022-08-19T08:00:43;101572.41;;;24.43;100.00
44765;BME280;30484;52.382;5.260;2022-08-19T08:03:19;101573.09;;;25.01;100.00
44765;BME280;30484;52.382;5.260;2022-08-19T08:06:09;101576.25;;;24.78;100.00
44765;BME280;30484;52.382;5.260;2022-08-19T08:09:01;101575.78;;;24.64;100.00
44765;BME280;30484;52.382;5.260;2022-08-19T08:11:50;101575.06;;;25.08;100.00
44765;BME280;30484;52.382;5.260;2022-08-19T08:14:26;101576.47;;;24.67;100.00
44765;BME280;30484;52.382;5.260;2022-08-19T08:17:01;101570.06;;;25.22;100.00
44765;BME280;30484;52.382;5.260;2022-08-19T08:19:40;101575.47;;;25.67;100.00
44765;BME280;30484;52.382;5.260;2022-08-19T08:22:11;101579.47;;;25.37;100.00
44765;BME280;30484;52.382;5.260;2022-08-19T08:25:04;101579.53;;;25.63;100.00
44765;BME280;30484;52.382;5.260;2022-08-19T08:27:35;101582.50;;;25.52;100.00
44765;BME280;30484;52.382;5.260;2022-08-19T08:30:09;101576.09;;;25.61;100.00
44765;BME280;30484;52.382;5.260;2022-08-19T08:32:39;101580.50;;;25.54;100.00
44765;BME280;30484;52.382;5.260;2022-08-19T08:35:23;101579.84;;;25.60;100.00
44765;BME280;30484;52.382;5.260;2022-08-19T08:37:54;101573.44;;;25.70;100.00
44765;BME280;30484;52.382;5.260;2022-08-19T08:40:30;101572.78;;;26.20;100.00
44765;BME280;30484;52.382;5.260;2022-08-19T08:43:07;101568.50;;;25.99;100.00
44765;BME280;30484;52.382;5.260;2022-08-19T08:45:55;101569.81;;;26.13;100.00
44765;BME280;30484;52.382;5.260;2022-08-19T08:48:38;101566.44;;;26.54;100.00
44765;BME280;30484;52.382;5.260;2022-08-19T08:51:20;101573.53;;;25.86;100.00
44765;BME280;30484;52.382;5.260;2022-08-19T08:53:56;101571.44;;;26.24;100.00
44765;BME280;30484;52.382;5.260;2022-08-19T08:56:25;101565.06;;;26.24;100.00
44765;BME280;30484;52.382;5.260;2022-08-19T08:58:59;101561.13;;;26.52;100.00
44765;BME280;30484;52.382;5.260;2022-08-19T09:01:29;101549.41;;;26.77;100.00
44765;BME280;30484;52.382;5.260;2022-08-19T09:03:59;101555.53;;;26.70;100.00
44765;BME280;30484;52.382;5.260;2022-08-19T09:06:40;101545.06;;;26.66;100.00
44765;BME280;30484;52.382;5.260;2022-08-19T09:09:17;101548.75;;;26.83;100.00
44765;BME280;30484;52.382;5.260;2022-08-19T09:11:59;101534.63;;;27.53;100.00
44765;BME280;30484;52.382;5.260;2022-08-19T09:14:37;101538.91;;;27.48;100.00
44765;BME280;30484;52.382;5.260;2022-08-19T09:17:20;101531.41;;;26.74;100.00
44765;BME280;30484;52.382;5.260;2022-08-19T09:20:00;101522.03;;;26.93;100.00
44765;BME280;30484;52.382;5.260;2022-08-19T09:22:39;101529.44;;;27.26;100.00
44765;BME280;30484;52.382;5.260;2022-08-19T09:25:15;101527.25;;;27.62;100.00
44765;BME280;30484;52.382;5.260;2022-08-19T09:27:56;101523.09;;;27.99;100.00
44765;BME280;30484;52.382;5.260;2022-08-19T09:30:51;101521.94;;;28.33;100.00
44765;BME280;30484;52.382;5.260;2022-08-19T09:33:24;101534.88;;;28.16;100.00
44765;BME280;30484;52.382;5.260;2022-08-19T09:36:04;101521.66;;;28.12;100.00
44765;BME280;30484;52.382;5.260;2022-08-19T09:38:37;101526.19;;;27.80;100.00
44765;BME280;30484;52.382;5.260;2022-08-19T09:41:12;101528.03;;;27.87;100.00
44765;BME280;30484;52.382;5.260;2022-08-19T09:43:46;101528.44;;;27.43;100.00
44765;BME280;30484;52.382;5.260;2022-08-19T09:46:19;101526.31;;;28.11;100.00
44765;BME280;30484;52.382;5.260;2022-08-19T09:48:54;101523.72;;;27.93;100.00
44765;BME280;30484;52.382;5.260;2022-08-19T09:51:33;101535.81;;;27.43;100.00
44765;BME280;30484;52.382;5.260;2022-08-19T09:54:05;101532.16;;;27.83;100.00
44765;BME280;30484;52.382;5.260;2022-08-19T09:56:37;101532.16;;;28.00;100.00
44765;BME280;30484;52.382;5.260;2022-08-19T09:59:09;101524.75;;;28.17;100.00
44765;BME280;30484;52.382;5.260;2022-08-19T10:01:40;101525.47;;;27.86;100.00
44765;BME280;30484;52.382;5.260;2022-08-19T10:04:09;101531.84;;;27.62;100.00
44765;BME280;30484;52.382;5.260;2022-08-19T10:06:47;101529.75;;;28.05;100.00
44765;BME280;30484;52.382;5.260;2022-08-19T10:09:23;101535.81;;;27.51;100.00
44765;BME280;30484;52.382;5.260;2022-08-19T10:12:01;101528.16;;;28.19;100.00
44765;BME280;30484;52.382;5.260;2022-08-19T10:14:37;101527.88;;;28.05;100.00
44765;BME280;30484;52.382;5.260;2022-08-19T10:17:07;101520.13;;;28.49;100.00
44765;BME280;30484;52.382;5.260;2022-08-19T10:19:48;101509.91;;;28.97;100.00
44765;BME280;30484;52.382;5.260;2022-08-19T10:22:22;101505.78;;;29.24;100.00
44765;BME280;30484;52.382;5.260;2022-08-19T10:24:54;101505.25;;;29.29;100.00
44765;BME280;30484;52.382;5.260;2022-08-19T10:27:23;101503.19;;;29.23;100.00
44765;BME280;30484;52.382;5.260;2022-08-19T10:29:52;101505.50;;;29.72;100.00
44765;BME280;30484;52.382;5.260;2022-08-19T10:32:25;101504.69;;;29.34;100.00
44765;BME280;30484;52.382;5.260;2022-08-19T10:35:06;101504.19;;;29.30;100.00
44765;BME280;30484;52.382;5.260;2022-08-19T10:37:39;101504.00;;;29.32;100.00
44765;BME280;30484;52.382;5.260;2022-08-19T10:40:26;101508.06;;;28.58;100.00
44765;BME280;30484;52.382;5.260;2022-08-19T10:42:56;101504.56;;;29.27;100.00
44765;BME280;30484;52.382;5.260;2022-08-19T10:45:25;101504.41;;;29.43;100.00
44765;BME280;30484;52.382;5.260;2022-08-19T10:47:56;101502.47;;;29.29;100.00
44765;BME280;30484;52.382;5.260;2022-08-19T10:50:29;101496.41;;;29.10;100.00
44765;BME280;30484;52.382;5.260;2022-08-19T10:53:18;101499.66;;;29.37;100.00
44765;BME280;30484;52.382;5.260;2022-08-19T10:55:52;101499.91;;;29.81;100.00
44765;BME280;30484;52.382;5.260;2022-08-19T10:58:41;101500.25;;;29.01;100.00
44765;BME280;30484;52.382;5.260;2022-08-19T11:01:11;101500.59;;;29.21;100.00
44765;BME280;30484;52.382;5.260;2022-08-19T11:03:40;101494.50;;;29.72;100.00
44765;BME280;30484;52.382;5.260;2022-08-19T11:06:13;101495.63;;;29.02;100.00
44765;BME280;30484;52.382;5.260;2022-08-19T11:08:42;101500.13;;;29.18;100.00
44765;BME280;30484;52.382;5.260;2022-08-19T11:11:16;101503.41;;;28.67;100.00
44765;BME280;30484;52.382;5.260;2022-08-19T11:13:48;101502.81;;;29.03;100.00
44765;BME280;30484;52.382;5.260;2022-08-19T11:16:20;101493.28;;;29.14;100.00
44765;BME280;30484;52.382;5.260;2022-08-19T11:18:54;101489.94;;;29.26;100.00
44765;BME280;30484;52.382;5.260;2022-08-19T11:21:33;101500.50;;;29.15;100.00
44765;BME280;30484;52.382;5.260;2022-08-19T11:24:06;101497.69;;;29.23;100.00
44765;BME280;30484;52.382;5.260;2022-08-19T11:26:45;101498.22;;;29.18;100.00
44765;BME280;30484;52.382;5.260;2022-08-19T11:29:22;101492.63;;;29.35;100.00
44765;BME280;30484;52.382;5.260;2022-08-19T11:31:55;101493.16;;;29.30;100.00
44765;BME280;30484;52.382;5.260;2022-08-19T11:34:29;101492.28;;;29.53;100.00
44765;BME280;30484;52.382;5.260;2022-08-19T11:37:04;101495.97;;;29.22;100.00
44765;BME280;30484;52.382;5.260;2022-08-19T11:39:36;101484.38;;;29.35;100.00
44765;BME280;30484;52.382;5.260;2022-08-19T11:42:11;101475.88;;;29.59;100.00
44765;BME280;30484;52.382;5.260;2022-08-19T11:44:59;101483.53;;;29.87;100.00
44765;BME280;30484;52.382;5.260;2022-08-19T11:47:31;101475.91;;;30.04;100.00
44765;BME280;30484;52.382;5.260;2022-08-19T11:50:01;101479.94;;;30.38;100.00
44765;BME280;30484;52.382;5.260;2022-08-19T11:52:32;101467.75;;;30.84;100.00
44765;BME280;30484;52.382;5.260;2022-08-19T11:55:02;101477.03;;;31.41;100.00
44765;BME280;30484;52.382;5.260;2022-08-19T11:57:36;101475.22;;;31.05;100.00
44765;BME280;30484;52.382;5.260;2022-08-19T12:00:06;101481.13;;;31.24;100.00
44765;BME280;30484;52.382;5.260;2022-08-19T12:02:36;101482.75;;;31.40;100.00
44765;BME280;30484;52.382;5.260;2022-08-19T12:05:07;101487.81;;;30.93;100.00
44765;BME280;30484;52.382;5.260;2022-08-19T12:07:40;101493.94;;;31.31;100.00
44765;BME280;30484;52.382;5.260;2022-08-19T12:10:11;101490.97;;;31.33;100.00
44765;BME280;30484;52.382;5.260;2022-08-19T12:12:50;101492.25;;;31.09;100.00
44765;BME280;30484;52.382;5.260;2022-08-19T12:15:26;101492.25;;;30.72;100.00
44765;BME280;30484;52.382;5.260;2022-08-19T12:18:04;101496.63;;;30.81;100.00
44765;BME280;30484;52.382;5.260;2022-08-19T12:20:36;101486.53;;;30.37;100.00
44765;BME280;30484;52.382;5.260;2022-08-19T12:23:09;101483.06;;;30.87;100.00
44765;BME280;30484;52.382;5.260;2022-08-19T12:25:46;101492.25;;;30.72;100.00
44765;BME280;30484;52.382;5.260;2022-08-19T12:28:22;101491.63;;;30.55;100.00
44765;BME280;30484;52.382;5.260;2022-08-19T12:30:52;101489.22;;;30.01;100.00
44765;BME280;30484;52.382;5.260;2022-08-19T12:33:23;101486.97;;;30.41;100.00
44765;BME280;30484;52.382;5.260;2022-08-19T12:36:00;101485.63;;;30.67;100.00
44765;BME280;30484;52.382;5.260;2022-08-19T12:38:30;101482.88;;;30.00;100.00
44765;BME280;30484;52.382;5.260;2022-08-19T12:41:02;101484.84;;;29.91;100.00
44765;BME280;30484;52.382;5.260;2022-08-19T12:43:38;101484.91;;;30.28;100.00
44765;BME280;30484;52.382;5.260;2022-08-19T12:46:12;101475.97;;;29.81;100.00
44765;BME280;30484;52.382;5.260;2022-08-19T12:48:44;101480.69;;;30.62;100.00
44765;BME280;30484;52.382;5.260;2022-08-19T12:51:18;101475.91;;;30.71;100.00
44765;BME280;30484;52.382;5.260;2022-08-19T12:53:48;101470.06;;;30.59;100.00
44765;BME280;30484;52.382;5.260;2022-08-19T12:56:17;101480.91;;;30.45;100.00
44765;BME280;30484;52.382;5.260;2022-08-19T12:58:50;101479.22;;;30.29;100.00
44765;BME280;30484;52.382;5.260;2022-08-19T13:01:20;101484.44;;;30.54;100.00
44765;BME280;30484;52.382;5.260;2022-08-19T13:03:50;101479.97;;;30.08;100.00
44765;BME280;30484;52.382;5.260;2022-08-19T13:06:20;101475.91;;;30.19;100.00
44765;BME280;30484;52.382;5.260;2022-08-19T13:08:49;101467.75;;;30.84;100.00
44765;BME280;30484;52.382;5.260;2022-08-19T13:11:20;101477.75;;;30.63;100.00
44765;BME280;30484;52.382;5.260;2022-08-19T13:13:53;101478.31;;;30.59;100.00